createdAt,value
2023-01-29T00:01:16.614Z,31.30
2023-01-29T00:06:18.264Z,31.80
2023-01-29T00:11:20.415Z,31.60
2023-01-29T00:16:21.753Z,29.23
2023-01-29T00:21:23.376Z,31.48
2023-01-29T00:26:24.973Z,48.13
2023-01-29T00:31:26.868Z,34.13
2023-01-29T00:36:28.464Z,44.28
2023-01-29T00:41:49.643Z,32.38
2023-01-29T00:46:51.126Z,29.38
2023-01-29T00:52:19.104Z,29.20
2023-01-29T00:57:20.525Z,30.83
2023-01-29T01:02:41.020Z,29.58
2023-01-29T01:07:42.341Z,26.60
2023-01-29T01:12:43.684Z,33.63
2023-01-29T01:17:45.477Z,26.90
2023-01-29T01:22:46.900Z,23.33
2023-01-29T01:27:50.575Z,33.13
2023-01-29T01:32:52.218Z,24.55
2023-01-29T01:37:53.806Z,25.60
2023-01-29T01:42:56.395Z,30.58
2023-01-29T01:48:12.913Z,26.60
2023-01-29T01:53:21.188Z,29.90
2023-01-29T01:58:33.386Z,28.63
2023-01-29T02:03:55.767Z,26.15
2023-01-29T02:09:22.043Z,28.45
2023-01-29T02:14:23.529Z,26.55
2023-01-29T02:19:37.276Z,24.02
2023-01-29T02:24:59.648Z,27.33
2023-01-29T02:30:05.137Z,24.52
2023-01-29T02:35:30.113Z,31.70
2023-01-29T02:40:36.079Z,32.78
2023-01-29T02:45:47.655Z,30.02
2023-01-29T02:51:07.492Z,28.17
2023-01-29T02:56:15.251Z,24.08
2023-01-29T03:01:32.832Z,28.42
2023-01-29T03:06:42.584Z,34.03
2023-01-29T03:11:47.279Z,36.95
2023-01-29T03:16:50.768Z,23.58
2023-01-29T03:21:59.462Z,34.92
2023-01-29T03:27:22.561Z,26.25
2023-01-29T03:32:26.456Z,29.67
2023-01-29T03:37:38.712Z,34.42
2023-01-29T03:42:58.583Z,28.17
2023-01-29T03:48:00.006Z,30.33
2023-01-29T03:53:19.907Z,31.77
2023-01-29T03:58:21.451Z,28.48
2023-01-29T04:03:25.618Z,31.20
2023-01-29T04:08:30.646Z,31.23
2023-01-29T04:13:36.035Z,23.55
2023-01-29T04:18:38.045Z,27.77
2023-01-29T04:23:42.061Z,29.42
2023-01-29T04:28:53.837Z,35.15
2023-01-29T04:34:13.863Z,30.98
2023-01-29T04:39:27.325Z,36.65
2023-01-29T04:44:36.911Z,28.00
2023-01-29T04:49:44.875Z,34.58
2023-01-29T04:54:55.024Z,33.80
2023-01-29T05:00:16.919Z,35.58
2023-01-29T05:05:19.687Z,36.45
2023-01-29T05:10:22.640Z,33.00
2023-01-29T05:15:26.315Z,38.10
2023-01-29T05:20:27.885Z,32.97
2023-01-29T05:25:30.944Z,31.13
2023-01-29T05:30:33.291Z,37.10
2023-01-29T05:35:34.835Z,38.22
2023-01-29T05:40:36.443Z,37.00
2023-01-29T05:45:37.770Z,36.80
2023-01-29T05:50:39.116Z,28.42
2023-01-29T05:55:43.569Z,44.75
2023-01-29T06:00:44.902Z,38.95
2023-01-29T06:05:46.236Z,32.33
2023-01-29T06:10:47.597Z,39.25
2023-01-29T06:15:48.948Z,32.42
2023-01-29T06:20:50.267Z,37.22
2023-01-29T06:25:51.586Z,34.25
2023-01-29T06:30:52.938Z,36.75
2023-01-29T06:36:01.072Z,38.70
2023-01-29T06:41:08.523Z,35.47
2023-01-29T06:46:09.914Z,42.53
2023-01-29T06:51:11.600Z,32.95
2023-01-29T06:56:12.933Z,42.78
2023-01-29T07:01:29.305Z,38.15
2023-01-29T07:06:35.722Z,32.45
2023-01-29T07:11:37.926Z,35.05
2023-01-29T07:16:39.369Z,43.83
2023-01-29T07:21:40.707Z,37.67
2023-01-29T07:26:42.219Z,38.28
2023-01-29T07:31:43.689Z,40.70
2023-01-29T07:36:45.113Z,38.65
2023-01-29T07:41:46.427Z,42.10
2023-01-29T07:46:50.966Z,44.70
2023-01-29T07:51:52.287Z,46.08
2023-01-29T07:56:53.617Z,41.15
2023-01-29T08:01:54.941Z,42.47
2023-01-29T08:06:56.301Z,38.10
2023-01-29T08:11:58.088Z,37.63
2023-01-29T08:16:59.429Z,39.72
2023-01-29T08:22:00.807Z,36.55
2023-01-29T08:27:02.138Z,41.10
2023-01-29T08:32:03.519Z,35.83
2023-01-29T08:37:04.919Z,35.88
2023-01-29T08:42:06.338Z,38.25
2023-01-29T08:47:08.120Z,39.13
2023-01-29T08:52:09.436Z,40.97
2023-01-29T08:57:10.743Z,47.72
2023-01-29T09:02:12.200Z,33.60
2023-01-29T09:07:13.591Z,38.10
2023-01-29T09:12:15.030Z,34.78
2023-01-29T09:17:16.381Z,40.35
2023-01-29T09:22:18.044Z,41.80
2023-01-29T09:27:19.364Z,37.28
2023-01-29T09:32:49.701Z,36.42
2023-01-29T09:37:42.046Z,42.67
2023-01-29T09:42:48.576Z,40.80
2023-01-29T09:47:50.515Z,34.67
2023-01-29T09:53:01.040Z,39.63
2023-01-29T09:58:11.685Z,37.60
2023-01-29T10:03:31.663Z,42.50
2023-01-29T10:08:48.049Z,34.53
2023-01-29T10:13:56.792Z,31.75
2023-01-29T10:19:07.019Z,38.83
2023-01-29T10:24:19.621Z,34.53
2023-01-29T10:29:22.016Z,33.08
2023-01-29T10:34:32.519Z,30.00
2023-01-29T10:39:34.313Z,32.53
2023-01-29T10:44:41.530Z,38.30
2023-01-29T10:49:42.819Z,34.13
2023-01-29T10:54:47.169Z,35.17
2023-01-29T11:00:07.834Z,35.72
2023-01-29T11:05:21.516Z,31.08
2023-01-29T11:10:23.634Z,34.92
2023-01-29T11:15:28.279Z,41.10
2023-01-29T11:20:30.263Z,33.70
2023-01-29T11:25:32.672Z,31.55
2023-01-29T11:30:37.212Z,33.83
2023-01-29T11:35:38.648Z,29.58
2023-01-29T11:40:40.532Z,29.67
2023-01-29T11:45:42.053Z,32.63
2023-01-29T11:50:44.288Z,29.77
2023-01-29T11:55:50.802Z,35.97
2023-01-29T12:00:55.231Z,31.75
2023-01-29T12:05:58.740Z,30.52
2023-01-29T12:11:12.244Z,30.02
2023-01-29T12:16:22.745Z,28.33
2023-01-29T12:21:28.962Z,28.63
2023-01-29T12:26:33.054Z,28.35
2023-01-29T12:31:53.390Z,26.88
2023-01-29T12:37:13.628Z,36.17
2023-01-29T12:42:14.932Z,25.88
2023-01-29T12:47:22.503Z,29.85
2023-01-29T12:52:34.116Z,27.67
2023-01-29T12:57:38.167Z,27.52
2023-01-29T13:02:43.719Z,24.75
2023-01-29T13:07:47.750Z,26.33
2023-01-29T13:13:09.396Z,23.08
2023-01-29T13:18:29.418Z,27.20
2023-01-29T13:23:34.136Z,22.85
2023-01-29T13:28:36.224Z,24.00
2023-01-29T13:33:37.901Z,26.35
2023-01-29T13:38:39.221Z,26.33
2023-01-29T13:43:42.595Z,24.45
2023-01-29T13:48:46.668Z,28.80
2023-01-29T13:54:00.609Z,20.95
2023-01-29T13:59:02.981Z,21.83
2023-01-29T14:04:15.105Z,20.77
2023-01-29T14:09:32.594Z,24.05
2023-01-29T14:14:49.275Z,22.33
2023-01-29T14:19:56.675Z,22.98
2023-01-29T14:25:02.888Z,23.88
2023-01-29T14:30:09.598Z,20.13
2023-01-29T14:35:32.504Z,22.38
2023-01-29T14:40:36.771Z,28.40
2023-01-29T14:45:39.067Z,19.63
2023-01-29T14:50:41.899Z,24.95
2023-01-29T14:56:02.203Z,22.38
2023-01-29T15:01:04.956Z,20.38
2023-01-29T15:06:07.823Z,18.30
2023-01-29T15:11:34.736Z,22.08
2023-01-29T15:16:46.169Z,20.30
2023-01-29T15:22:05.919Z,20.58
2023-01-29T15:27:09.945Z,20.42
2023-01-29T15:32:15.369Z,18.23
2023-01-29T15:37:24.691Z,20.13
2023-01-29T15:47:31.097Z,19.48
2023-01-29T15:52:35.029Z,22.58
2023-01-29T15:57:37.447Z,22.33
2023-01-29T16:02:40.317Z,31.05
2023-01-29T16:07:42.275Z,24.20
2023-01-29T16:12:47.181Z,33.08
2023-01-29T16:17:48.652Z,27.10
2023-01-29T16:22:53.171Z,25.50
2023-01-29T16:27:54.527Z,23.35
2023-01-29T16:33:02.951Z,29.52
2023-01-29T16:38:16.301Z,23.23
2023-01-29T16:43:17.649Z,30.65
2023-01-29T16:48:25.919Z,28.65
2023-01-29T16:53:27.998Z,29.87
2023-01-29T16:58:30.260Z,25.27
2023-01-29T17:03:32.858Z,24.70
2023-01-29T17:08:34.405Z,27.40
2023-01-29T17:13:38.014Z,25.27
2023-01-29T17:18:40.217Z,22.83
2023-01-29T17:23:41.545Z,26.67
2023-01-29T17:28:43.248Z,26.73
2023-01-29T17:33:45.782Z,24.42
2023-01-29T17:38:47.820Z,26.85
2023-01-29T17:43:49.131Z,26.58
2023-01-29T17:48:50.522Z,25.98
2023-01-29T17:53:51.863Z,25.27
2023-01-29T17:58:53.390Z,25.88
2023-01-29T18:03:54.785Z,24.40
2023-01-29T18:08:56.628Z,23.52
2023-01-29T18:13:58.912Z,26.45
2023-01-29T18:19:12.157Z,29.48
2023-01-29T18:24:13.586Z,28.92
2023-01-29T18:29:14.996Z,22.63
2023-01-29T18:34:16.372Z,27.80
2023-01-29T18:39:17.771Z,27.50
2023-01-29T18:44:19.159Z,21.00
2023-01-29T18:49:20.487Z,27.48
2023-01-29T18:54:21.891Z,27.60
2023-01-29T18:59:23.188Z,20.80
2023-01-29T19:04:24.670Z,27.90
2023-01-29T19:09:26.061Z,21.65
2023-01-29T19:14:27.565Z,26.92
2023-01-29T19:19:28.931Z,20.20
2023-01-29T19:24:36.076Z,26.88
2023-01-29T19:29:37.526Z,18.50
2023-01-29T19:34:39.016Z,26.33
2023-01-29T19:39:40.391Z,25.88
2023-01-29T19:44:41.742Z,18.17
2023-01-29T19:49:43.086Z,25.15
2023-01-29T19:54:46.118Z,18.13
2023-01-29T19:59:47.547Z,24.65
2023-01-29T20:04:48.850Z,25.42
2023-01-29T20:09:51.980Z,23.77
2023-01-29T20:14:54.124Z,23.05
2023-01-29T20:19:55.561Z,21.10
2023-01-29T20:24:57.200Z,24.13
2023-01-29T20:29:59.588Z,25.83
2023-01-29T20:35:00.967Z,19.92
2023-01-29T20:40:02.395Z,25.20
2023-01-29T20:45:03.899Z,19.85
2023-01-29T20:50:08.464Z,21.20
2023-01-29T20:55:11.029Z,24.80
2023-01-29T21:00:13.983Z,24.63
2023-01-29T21:05:15.378Z,19.90
2023-01-29T21:10:17.141Z,22.13
2023-01-29T21:15:18.623Z,17.20
2023-01-29T21:20:20.031Z,23.77
2023-01-29T21:25:22.904Z,21.75
2023-01-29T21:30:24.498Z,18.58
2023-01-29T21:35:26.055Z,22.35
2023-01-29T21:40:29.687Z,21.70
2023-01-29T21:45:31.146Z,20.67
2023-01-29T21:50:32.547Z,28.00
2023-01-29T21:55:33.929Z,19.77
2023-01-29T22:00:35.284Z,27.02
2023-01-29T22:05:36.843Z,24.40
2023-01-29T22:10:38.935Z,22.63
2023-01-29T22:15:40.323Z,20.60
2023-01-29T22:20:41.639Z,26.63
2023-01-29T22:25:43.555Z,22.98
2023-01-29T22:30:45.138Z,30.10
2023-01-29T22:35:46.535Z,26.98
2023-01-29T22:40:51.568Z,30.67
2023-01-29T22:45:52.957Z,23.65
2023-01-29T22:51:09.495Z,20.73
2023-01-29T22:56:11.501Z,26.55
2023-01-29T23:01:12.905Z,21.98
2023-01-29T23:06:14.965Z,27.02
2023-01-29T23:11:18.591Z,26.52
2023-01-29T23:16:21.135Z,19.77
2023-01-29T23:21:24.824Z,25.83
2023-01-29T23:26:44.789Z,20.88
2023-01-29T23:31:46.321Z,25.05
2023-01-29T23:36:47.894Z,23.95
2023-01-29T23:41:49.275Z,20.15
2023-01-29T23:46:50.658Z,29.48
2023-01-29T23:51:52.068Z,25.10
2023-01-29T23:56:53.446Z,19.65
